sensor_id;sensor_type;location;lat;lon;timestamp;P1;durP1;ratioP1;P2;durP2;ratioP2
42066;SDS011;27734;47.028;28.820;2023-06-24T00:01:24;14.63;;;6.67;;
42066;SDS011;27734;47.028;28.820;2023-06-24T00:03:55;14.83;;;6.70;;
42066;SDS011;27734;47.028;28.820;2023-06-24T00:06:27;11.85;;;6.70;;
42066;SDS011;27734;47.028;28.820;2023-06-24T00:08:58;16.23;;;7.03;;
42066;SDS011;27734;47.028;28.820;2023-06-24T00:11:29;13.37;;;7.13;;
42066;SDS011;27734;47.028;28.820;2023-06-24T00:14:01;14.07;;;6.73;;
42066;SDS011;27734;47.028;28.820;2023-06-24T00:16:33;13.50;;;6.80;;
42066;SDS011;27734;47.028;28.820;2023-06-24T00:19:04;16.90;;;6.87;;
42066;SDS011;27734;47.028;28.820;2023-06-24T00:21:36;17.03;;;6.90;;
42066;SDS011;27734;47.028;28.820;2023-06-24T00:24:08;15.60;;;6.80;;
42066;SDS011;27734;47.028;28.820;2023-06-24T00:26:39;13.67;;;7.10;;
42066;SDS011;27734;47.028;28.820;2023-06-24T00:29:10;12.07;;;6.87;;
42066;SDS011;27734;47.028;28.820;2023-06-24T00:31:43;13.98;;;6.75;;
42066;SDS011;27734;47.028;28.820;2023-06-24T00:34:14;11.37;;;6.73;;
42066;SDS011;27734;47.028;28.820;2023-06-24T00:36:48;13.43;;;6.80;;
42066;SDS011;27734;47.028;28.820;2023-06-24T00:41:51;10.87;;;6.70;;
42066;SDS011;27734;47.028;28.820;2023-06-24T00:44:23;13.00;;;7.10;;
42066;SDS011;27734;47.028;28.820;2023-06-24T00:46:55;11.95;;;6.55;;
42066;SDS011;27734;47.028;28.820;2023-06-24T00:49:26;14.67;;;6.80;;
42066;SDS011;27734;47.028;28.820;2023-06-24T00:51:58;12.30;;;6.90;;
42066;SDS011;27734;47.028;28.820;2023-06-24T00:54:30;14.27;;;6.70;;
42066;SDS011;27734;47.028;28.820;2023-06-24T00:57:01;12.80;;;6.90;;
42066;SDS011;27734;47.028;28.820;2023-06-24T00:59:33;14.40;;;7.10;;
42066;SDS011;27734;47.028;28.820;2023-06-24T01:02:05;12.60;;;6.93;;
42066;SDS011;27734;47.028;28.820;2023-06-24T01:04:37;12.50;;;6.60;;
42066;SDS011;27734;47.028;28.820;2023-06-24T01:07:08;13.23;;;6.97;;
42066;SDS011;27734;47.028;28.820;2023-06-24T01:09:40;13.40;;;6.97;;
42066;SDS011;27734;47.028;28.820;2023-06-24T01:12:12;15.70;;;6.90;;
42066;SDS011;27734;47.028;28.820;2023-06-24T01:14:43;12.43;;;6.67;;
42066;SDS011;27734;47.028;28.820;2023-06-24T01:17:14;13.83;;;7.27;;
42066;SDS011;27734;47.028;28.820;2023-06-24T01:19:59;11.90;;;7.03;;
42066;SDS011;27734;47.028;28.820;2023-06-24T01:22:47;14.17;;;7.27;;
42066;SDS011;27734;47.028;28.820;2023-06-24T01:25:44;16.63;;;7.20;;
42066;SDS011;27734;47.028;28.820;2023-06-24T01:28:52;15.87;;;7.33;;
42066;SDS011;27734;47.028;28.820;2023-06-24T01:31:40;12.40;;;7.17;;
42066;SDS011;27734;47.028;28.820;2023-06-24T01:34:18;14.35;;;7.15;;
42066;SDS011;27734;47.028;28.820;2023-06-24T01:36:57;14.30;;;7.27;;
42066;SDS011;27734;47.028;28.820;2023-06-24T01:39:37;14.17;;;7.37;;
42066;SDS011;27734;47.028;28.820;2023-06-24T01:42:12;14.27;;;7.70;;
42066;SDS011;27734;47.028;28.820;2023-06-24T01:44:47;13.07;;;6.97;;
42066;SDS011;27734;47.028;28.820;2023-06-24T01:47:39;15.60;;;7.63;;
42066;SDS011;27734;47.028;28.820;2023-06-24T01:52:44;14.83;;;7.30;;
42066;SDS011;27734;47.028;28.820;2023-06-24T01:55:17;17.90;;;7.10;;
42066;SDS011;27734;47.028;28.820;2023-06-24T01:57:52;11.60;;;7.03;;
42066;SDS011;27734;47.028;28.820;2023-06-24T02:00:25;13.70;;;7.07;;
42066;SDS011;27734;47.028;28.820;2023-06-24T02:02:58;14.15;;;7.40;;
42066;SDS011;27734;47.028;28.820;2023-06-24T02:05:31;16.77;;;7.53;;
42066;SDS011;27734;47.028;28.820;2023-06-24T02:08:04;13.72;;;7.35;;
42066;SDS011;27734;47.028;28.820;2023-06-24T02:10:38;14.63;;;7.80;;
42066;SDS011;27734;47.028;28.820;2023-06-24T02:13:10;18.63;;;7.67;;
42066;SDS011;27734;47.028;28.820;2023-06-24T02:15:42;15.57;;;8.10;;
42066;SDS011;27734;47.028;28.820;2023-06-24T02:18:15;13.72;;;7.65;;
42066;SDS011;27734;47.028;28.820;2023-06-24T02:20:50;15.63;;;7.70;;
42066;SDS011;27734;47.028;28.820;2023-06-24T02:23:22;15.00;;;7.63;;
42066;SDS011;27734;47.028;28.820;2023-06-24T02:25:54;13.83;;;7.23;;
42066;SDS011;27734;47.028;28.820;2023-06-24T02:28:26;14.07;;;7.83;;
42066;SDS011;27734;47.028;28.820;2023-06-24T02:30:59;14.90;;;7.83;;
42066;SDS011;27734;47.028;28.820;2023-06-24T02:33:30;14.63;;;8.10;;
42066;SDS011;27734;47.028;28.820;2023-06-24T02:36:02;14.40;;;8.07;;
42066;SDS011;27734;47.028;28.820;2023-06-24T02:38:34;15.90;;;8.10;;
42066;SDS011;27734;47.028;28.820;2023-06-24T02:41:05;17.93;;;8.10;;
42066;SDS011;27734;47.028;28.820;2023-06-24T02:43:37;13.40;;;7.50;;
42066;SDS011;27734;47.028;28.820;2023-06-24T02:46:08;14.83;;;8.00;;
42066;SDS011;27734;47.028;28.820;2023-06-24T02:48:40;16.73;;;7.30;;
42066;SDS011;27734;47.028;28.820;2023-06-24T02:51:14;15.37;;;8.10;;
42066;SDS011;27734;47.028;28.820;2023-06-24T02:53:46;13.45;;;7.65;;
42066;SDS011;27734;47.028;28.820;2023-06-24T02:56:24;16.83;;;7.87;;
42066;SDS011;27734;47.028;28.820;2023-06-24T02:58:56;14.85;;;7.60;;
42066;SDS011;27734;47.028;28.820;2023-06-24T03:01:29;10.93;;;7.33;;
42066;SDS011;27734;47.028;28.820;2023-06-24T03:04:06;20.03;;;8.50;;
42066;SDS011;27734;47.028;28.820;2023-06-24T03:06:41;16.10;;;8.37;;
42066;SDS011;27734;47.028;28.820;2023-06-24T03:09:13;15.00;;;8.03;;
42066;SDS011;27734;47.028;28.820;2023-06-24T03:11:45;19.17;;;8.17;;
42066;SDS011;27734;47.028;28.820;2023-06-24T03:14:22;21.60;;;8.07;;
42066;SDS011;27734;47.028;28.820;2023-06-24T03:16:55;14.10;;;7.50;;
42066;SDS011;27734;47.028;28.820;2023-06-24T03:19:28;14.90;;;8.20;;
42066;SDS011;27734;47.028;28.820;2023-06-24T03:21:59;17.60;;;8.20;;
42066;SDS011;27734;47.028;28.820;2023-06-24T03:24:31;17.30;;;7.67;;
42066;SDS011;27734;47.028;28.820;2023-06-24T03:27:02;17.93;;;8.70;;
42066;SDS011;27734;47.028;28.820;2023-06-24T03:29:39;16.23;;;7.87;;
42066;SDS011;27734;47.028;28.820;2023-06-24T03:32:13;14.67;;;7.90;;
42066;SDS011;27734;47.028;28.820;2023-06-24T03:34:45;16.63;;;7.60;;
42066;SDS011;27734;47.028;28.820;2023-06-24T03:37:16;16.53;;;8.17;;
42066;SDS011;27734;47.028;28.820;2023-06-24T03:39:47;18.87;;;9.40;;
42066;SDS011;27734;47.028;28.820;2023-06-24T03:42:19;17.03;;;9.03;;
42066;SDS011;27734;47.028;28.820;2023-06-24T03:44:50;14.73;;;7.97;;
42066;SDS011;27734;47.028;28.820;2023-06-24T03:47:22;15.20;;;8.15;;
42066;SDS011;27734;47.028;28.820;2023-06-24T03:49:53;16.13;;;7.97;;
42066;SDS011;27734;47.028;28.820;2023-06-24T03:52:24;19.77;;;8.30;;
42066;SDS011;27734;47.028;28.820;2023-06-24T03:54:57;17.90;;;8.20;;
42066;SDS011;27734;47.028;28.820;2023-06-24T03:57:29;15.60;;;8.23;;
42066;SDS011;27734;47.028;28.820;2023-06-24T04:00:01;17.40;;;7.77;;
42066;SDS011;27734;47.028;28.820;2023-06-24T04:02:41;19.83;;;7.90;;
42066;SDS011;27734;47.028;28.820;2023-06-24T04:05:13;17.27;;;8.10;;
42066;SDS011;27734;47.028;28.820;2023-06-24T04:07:44;16.00;;;8.10;;
42066;SDS011;27734;47.028;28.820;2023-06-24T04:10:16;18.87;;;8.17;;
42066;SDS011;27734;47.028;28.820;2023-06-24T04:12:48;14.37;;;7.97;;
42066;SDS011;27734;47.028;28.820;2023-06-24T04:15:19;16.00;;;7.90;;
42066;SDS011;27734;47.028;28.820;2023-06-24T04:17:50;17.50;;;8.17;;
42066;SDS011;27734;47.028;28.820;2023-06-24T04:20:22;13.90;;;7.85;;
42066;SDS011;27734;47.028;28.820;2023-06-24T04:22:53;17.13;;;7.90;;
42066;SDS011;27734;47.028;28.820;2023-06-24T04:25:24;17.57;;;8.07;;
42066;SDS011;27734;47.028;28.820;2023-06-24T04:27:56;16.20;;;7.60;;
42066;SDS011;27734;47.028;28.820;2023-06-24T04:30:27;15.93;;;8.40;;
42066;SDS011;27734;47.028;28.820;2023-06-24T04:32:58;16.40;;;7.85;;
42066;SDS011;27734;47.028;28.820;2023-06-24T04:35:30;18.93;;;8.10;;
42066;SDS011;27734;47.028;28.820;2023-06-24T04:38:01;18.17;;;8.30;;
42066;SDS011;27734;47.028;28.820;2023-06-24T04:40:33;16.80;;;7.63;;
42066;SDS011;27734;47.028;28.820;2023-06-24T04:43:04;18.77;;;8.10;;
42066;SDS011;27734;47.028;28.820;2023-06-24T04:45:35;15.30;;;8.17;;
42066;SDS011;27734;47.028;28.820;2023-06-24T04:48:06;15.57;;;7.70;;
42066;SDS011;27734;47.028;28.820;2023-06-24T04:50:38;15.53;;;8.30;;
42066;SDS011;27734;47.028;28.820;2023-06-24T04:53:09;19.30;;;8.60;;
42066;SDS011;27734;47.028;28.820;2023-06-24T04:55:41;16.13;;;8.83;;
42066;SDS011;27734;47.028;28.820;2023-06-24T04:58:12;16.60;;;8.60;;
42066;SDS011;27734;47.028;28.820;2023-06-24T05:00:43;18.73;;;8.77;;
42066;SDS011;27734;47.028;28.820;2023-06-24T05:03:14;17.87;;;9.03;;
42066;SDS011;27734;47.028;28.820;2023-06-24T05:05:45;16.53;;;8.80;;
42066;SDS011;27734;47.028;28.820;2023-06-24T05:08:17;18.93;;;9.57;;
42066;SDS011;27734;47.028;28.820;2023-06-24T05:10:48;18.93;;;9.37;;
42066;SDS011;27734;47.028;28.820;2023-06-24T05:13:20;17.60;;;10.00;;
42066;SDS011;27734;47.028;28.820;2023-06-24T05:15:51;20.23;;;9.37;;
42066;SDS011;27734;47.028;28.820;2023-06-24T05:18:22;19.00;;;9.40;;
42066;SDS011;27734;47.028;28.820;2023-06-24T05:20:53;18.40;;;9.63;;
42066;SDS011;27734;47.028;28.820;2023-06-24T05:23:25;17.87;;;9.63;;
42066;SDS011;27734;47.028;28.820;2023-06-24T05:25:56;20.23;;;9.33;;
42066;SDS011;27734;47.028;28.820;2023-06-24T05:28:27;19.30;;;9.70;;
42066;SDS011;27734;47.028;28.820;2023-06-24T05:30:58;17.43;;;8.80;;
42066;SDS011;27734;47.028;28.820;2023-06-24T05:33:30;18.07;;;8.93;;
42066;SDS011;27734;47.028;28.820;2023-06-24T05:36:01;16.40;;;8.50;;
42066;SDS011;27734;47.028;28.820;2023-06-24T05:38:32;16.83;;;9.67;;
42066;SDS011;27734;47.028;28.820;2023-06-24T05:41:04;18.77;;;9.70;;
42066;SDS011;27734;47.028;28.820;2023-06-24T05:43:35;20.07;;;10.33;;
42066;SDS011;27734;47.028;28.820;2023-06-24T05:46:06;20.87;;;9.40;;
42066;SDS011;27734;47.028;28.820;2023-06-24T05:48:38;17.70;;;9.07;;
42066;SDS011;27734;47.028;28.820;2023-06-24T05:51:13;20.30;;;9.23;;
42066;SDS011;27734;47.028;28.820;2023-06-24T05:53:51;21.27;;;9.73;;
42066;SDS011;27734;47.028;28.820;2023-06-24T05:56:22;20.10;;;9.20;;
42066;SDS011;27734;47.028;28.820;2023-06-24T05:58:56;19.10;;;9.27;;
42066;SDS011;27734;47.028;28.820;2023-06-24T06:01:27;19.40;;;10.05;;
42066;SDS011;27734;47.028;28.820;2023-06-24T06:03:58;18.77;;;9.53;;
42066;SDS011;27734;47.028;28.820;2023-06-24T06:06:30;14.47;;;9.07;;
42066;SDS011;27734;47.028;28.820;2023-06-24T06:09:02;17.23;;;9.90;;
42066;SDS011;27734;47.028;28.820;2023-06-24T06:11:34;19.70;;;9.83;;
42066;SDS011;27734;47.028;28.820;2023-06-24T06:14:05;20.20;;;9.70;;
42066;SDS011;27734;47.028;28.820;2023-06-24T06:16:36;15.27;;;8.67;;
42066;SDS011;27734;47.028;28.820;2023-06-24T06:19:08;20.43;;;10.10;;
42066;SDS011;27734;47.028;28.820;2023-06-24T06:21:39;19.00;;;9.60;;
42066;SDS011;27734;47.028;28.820;2023-06-24T06:24:10;18.23;;;9.43;;
42066;SDS011;27734;47.028;28.820;2023-06-24T06:26:42;16.77;;;9.27;;
42066;SDS011;27734;47.028;28.820;2023-06-24T06:29:14;17.17;;;9.20;;
42066;SDS011;27734;47.028;28.820;2023-06-24T06:31:45;18.30;;;9.57;;
42066;SDS011;27734;47.028;28.820;2023-06-24T06:34:16;16.50;;;9.77;;
42066;SDS011;27734;47.028;28.820;2023-06-24T06:36:49;16.53;;;10.03;;
42066;SDS011;27734;47.028;28.820;2023-06-24T06:39:20;18.40;;;9.77;;
42066;SDS011;27734;47.028;28.820;2023-06-24T06:41:51;18.80;;;9.93;;
42066;SDS011;27734;47.028;28.820;2023-06-24T06:44:26;16.23;;;9.47;;
42066;SDS011;27734;47.028;28.820;2023-06-24T06:46:57;20.17;;;9.60;;
42066;SDS011;27734;47.028;28.820;2023-06-24T06:49:28;16.50;;;9.20;;
42066;SDS011;27734;47.028;28.820;2023-06-24T06:51:59;14.63;;;8.70;;
42066;SDS011;27734;47.028;28.820;2023-06-24T06:54:30;18.77;;;9.20;;
42066;SDS011;27734;47.028;28.820;2023-06-24T06:57:02;18.70;;;9.87;;
42066;SDS011;27734;47.028;28.820;2023-06-24T06:59:34;19.03;;;9.73;;
42066;SDS011;27734;47.028;28.820;2023-06-24T07:02:05;14.67;;;8.50;;
42066;SDS011;27734;47.028;28.820;2023-06-24T07:04:36;17.37;;;9.20;;
42066;SDS011;27734;47.028;28.820;2023-06-24T07:07:08;17.60;;;8.93;;
42066;SDS011;27734;47.028;28.820;2023-06-24T07:09:40;15.67;;;8.27;;
42066;SDS011;27734;47.028;28.820;2023-06-24T07:12:11;14.77;;;8.17;;
42066;SDS011;27734;47.028;28.820;2023-06-24T07:14:42;16.53;;;8.47;;
42066;SDS011;27734;47.028;28.820;2023-06-24T07:17:13;17.13;;;8.47;;
42066;SDS011;27734;47.028;28.820;2023-06-24T07:19:44;15.97;;;8.03;;
42066;SDS011;27734;47.028;28.820;2023-06-24T07:22:15;16.50;;;8.20;;
42066;SDS011;27734;47.028;28.820;2023-06-24T07:24:46;16.00;;;8.40;;
42066;SDS011;27734;47.028;28.820;2023-06-24T07:27:18;19.23;;;8.30;;
42066;SDS011;27734;47.028;28.820;2023-06-24T07:29:49;15.73;;;8.90;;
42066;SDS011;27734;47.028;28.820;2023-06-24T07:32:20;17.60;;;8.43;;
42066;SDS011;27734;47.028;28.820;2023-06-24T07:34:51;18.33;;;8.40;;
42066;SDS011;27734;47.028;28.820;2023-06-24T07:37:22;16.50;;;9.00;;
42066;SDS011;27734;47.028;28.820;2023-06-24T07:39:53;18.70;;;8.43;;
42066;SDS011;27734;47.028;28.820;2023-06-24T07:42:24;18.80;;;8.97;;
42066;SDS011;27734;47.028;28.820;2023-06-24T07:44:55;17.83;;;9.10;;
42066;SDS011;27734;47.028;28.820;2023-06-24T07:47:26;15.20;;;8.63;;
42066;SDS011;27734;47.028;28.820;2023-06-24T07:49:57;15.17;;;8.30;;
42066;SDS011;27734;47.028;28.820;2023-06-24T07:52:29;16.27;;;8.40;;
42066;SDS011;27734;47.028;28.820;2023-06-24T07:55:00;15.65;;;8.45;;
42066;SDS011;27734;47.028;28.820;2023-06-24T07:57:31;16.47;;;8.97;;
42066;SDS011;27734;47.028;28.820;2023-06-24T08:00:02;15.27;;;9.07;;
42066;SDS011;27734;47.028;28.820;2023-06-24T08:02:41;18.17;;;8.83;;
42066;SDS011;27734;47.028;28.820;2023-06-24T08:05:13;16.53;;;8.63;;
42066;SDS011;27734;47.028;28.820;2023-06-24T08:07:46;17.33;;;8.50;;
42066;SDS011;27734;47.028;28.820;2023-06-24T08:10:17;15.40;;;8.73;;
42066;SDS011;27734;47.028;28.820;2023-06-24T08:12:48;15.60;;;9.07;;
42066;SDS011;27734;47.028;28.820;2023-06-24T08:15:19;15.67;;;8.33;;
42066;SDS011;27734;47.028;28.820;2023-06-24T08:17:52;16.77;;;8.93;;
42066;SDS011;27734;47.028;28.820;2023-06-24T08:20:23;16.82;;;9.08;;
42066;SDS011;27734;47.028;28.820;2023-06-24T08:22:54;17.37;;;8.67;;
42066;SDS011;27734;47.028;28.820;2023-06-24T08:25:26;14.37;;;8.40;;
42066;SDS011;27734;47.028;28.820;2023-06-24T08:27:57;18.77;;;9.20;;
42066;SDS011;27734;47.028;28.820;2023-06-24T08:30:28;15.87;;;8.47;;
42066;SDS011;27734;47.028;28.820;2023-06-24T08:32:59;13.80;;;8.35;;
42066;SDS011;27734;47.028;28.820;2023-06-24T08:35:31;14.13;;;8.57;;
42066;SDS011;27734;47.028;28.820;2023-06-24T08:38:02;16.40;;;8.95;;
42066;SDS011;27734;47.028;28.820;2023-06-24T08:40:33;14.53;;;8.90;;
42066;SDS011;27734;47.028;28.820;2023-06-24T08:43:08;16.70;;;8.55;;
42066;SDS011;27734;47.028;28.820;2023-06-24T08:45:39;15.13;;;9.53;;
42066;SDS011;27734;47.028;28.820;2023-06-24T08:48:10;14.97;;;8.50;;
42066;SDS011;27734;47.028;28.820;2023-06-24T08:50:44;16.77;;;9.05;;
42066;SDS011;27734;47.028;28.820;2023-06-24T08:53:20;17.10;;;8.97;;
42066;SDS011;27734;47.028;28.820;2023-06-24T08:55:52;14.75;;;9.05;;
42066;SDS011;27734;47.028;28.820;2023-06-24T08:58:25;17.40;;;9.00;;
42066;SDS011;27734;47.028;28.820;2023-06-24T09:00:57;16.10;;;9.20;;
42066;SDS011;27734;47.028;28.820;2023-06-24T09:03:29;17.20;;;8.90;;
42066;SDS011;27734;47.028;28.820;2023-06-24T09:06:00;15.83;;;8.63;;
42066;SDS011;27734;47.028;28.820;2023-06-24T09:08:31;16.63;;;8.70;;
42066;SDS011;27734;47.028;28.820;2023-06-24T09:11:03;14.50;;;8.43;;
42066;SDS011;27734;47.028;28.820;2023-06-24T09:13:37;16.73;;;8.50;;
42066;SDS011;27734;47.028;28.820;2023-06-24T09:16:14;15.57;;;8.90;;
42066;SDS011;27734;47.028;28.820;2023-06-24T09:18:48;16.80;;;9.23;;
42066;SDS011;27734;47.028;28.820;2023-06-24T09:21:24;14.97;;;8.33;;
42066;SDS011;27734;47.028;28.820;2023-06-24T09:23:58;18.77;;;9.20;;
42066;SDS011;27734;47.028;28.820;2023-06-24T09:26:29;14.00;;;9.10;;
42066;SDS011;27734;47.028;28.820;2023-06-24T09:29:00;15.70;;;9.03;;
42066;SDS011;27734;47.028;28.820;2023-06-24T09:31:33;17.35;;;9.50;;
42066;SDS011;27734;47.028;28.820;2023-06-24T09:34:04;15.97;;;9.27;;
42066;SDS011;27734;47.028;28.820;2023-06-24T09:36:37;15.67;;;8.93;;
42066;SDS011;27734;47.028;28.820;2023-06-24T09:39:13;14.47;;;8.60;;
42066;SDS011;27734;47.028;28.820;2023-06-24T09:41:45;12.90;;;8.70;;
42066;SDS011;27734;47.028;28.820;2023-06-24T09:44:19;15.03;;;8.80;;
42066;SDS011;27734;47.028;28.820;2023-06-24T09:46:50;19.10;;;9.45;;
42066;SDS011;27734;47.028;28.820;2023-06-24T09:49:22;19.20;;;9.20;;
42066;SDS011;27734;47.028;28.820;2023-06-24T09:51:55;16.63;;;10.03;;
42066;SDS011;27734;47.028;28.820;2023-06-24T09:54:28;13.50;;;9.00;;
42066;SDS011;27734;47.028;28.820;2023-06-24T09:57:01;17.70;;;8.80;;
42066;SDS011;27734;47.028;28.820;2023-06-24T09:59:34;18.17;;;9.37;;
42066;SDS011;27734;47.028;28.820;2023-06-24T10:02:05;15.53;;;8.97;;
42066;SDS011;27734;47.028;28.820;2023-06-24T10:04:42;16.20;;;8.87;;
42066;SDS011;27734;47.028;28.820;2023-06-24T10:07:15;15.23;;;9.20;;
42066;SDS011;27734;47.028;28.820;2023-06-24T10:09:47;16.07;;;8.97;;
42066;SDS011;27734;47.028;28.820;2023-06-24T10:12:18;17.07;;;9.13;;
42066;SDS011;27734;47.028;28.820;2023-06-24T10:14:49;14.10;;;8.77;;
42066;SDS011;27734;47.028;28.820;2023-06-24T10:17:20;16.50;;;9.23;;
42066;SDS011;27734;47.028;28.820;2023-06-24T10:19:53;14.95;;;8.93;;
42066;SDS011;27734;47.028;28.820;2023-06-24T10:22:24;16.13;;;8.80;;
42066;SDS011;27734;47.028;28.820;2023-06-24T10:25:00;14.03;;;9.00;;
42066;SDS011;27734;47.028;28.820;2023-06-24T10:27:39;15.13;;;9.03;;
42066;SDS011;27734;47.028;28.820;2023-06-24T10:30:16;17.03;;;8.63;;
42066;SDS011;27734;47.028;28.820;2023-06-24T10:32:50;13.60;;;8.70;;
42066;SDS011;27734;47.028;28.820;2023-06-24T10:35:23;14.15;;;8.70;;
42066;SDS011;27734;47.028;28.820;2023-06-24T10:37:58;14.57;;;8.20;;
42066;SDS011;27734;47.028;28.820;2023-06-24T10:40:37;16.20;;;8.60;;
42066;SDS011;27734;47.028;28.820;2023-06-24T10:43:24;13.60;;;8.30;;
42066;SDS011;27734;47.028;28.820;2023-06-24T10:45:59;14.80;;;8.20;;
42066;SDS011;27734;47.028;28.820;2023-06-24T10:48:30;14.60;;;8.20;;
42066;SDS011;27734;47.028;28.820;2023-06-24T10:51:01;13.57;;;8.53;;
42066;SDS011;27734;47.028;28.820;2023-06-24T10:53:32;16.87;;;8.43;;
42066;SDS011;27734;47.028;28.820;2023-06-24T10:56:04;16.77;;;8.40;;
42066;SDS011;27734;47.028;28.820;2023-06-24T10:58:35;15.17;;;8.90;;
42066;SDS011;27734;47.028;28.820;2023-06-24T11:01:10;14.43;;;8.10;;
42066;SDS011;27734;47.028;28.820;2023-06-24T11:03:43;13.63;;;8.27;;
42066;SDS011;27734;47.028;28.820;2023-06-24T11:06:14;14.17;;;8.20;;
42066;SDS011;27734;47.028;28.820;2023-06-24T11:08:45;13.97;;;8.00;;
42066;SDS011;27734;47.028;28.820;2023-06-24T11:11:20;12.20;;;7.93;;
42066;SDS011;27734;47.028;28.820;2023-06-24T11:13:51;12.43;;;8.00;;
42066;SDS011;27734;47.028;28.820;2023-06-24T11:16:23;13.70;;;8.08;;
42066;SDS011;27734;47.028;28.820;2023-06-24T11:18:54;15.60;;;8.47;;
42066;SDS011;27734;47.028;28.820;2023-06-24T11:21:29;15.90;;;8.13;;
42066;SDS011;27734;47.028;28.820;2023-06-24T11:24:01;15.90;;;8.10;;
42066;SDS011;27734;47.028;28.820;2023-06-24T11:26:33;13.35;;;8.20;;
42066;SDS011;27734;47.028;28.820;2023-06-24T11:29:10;14.97;;;8.40;;
42066;SDS011;27734;47.028;28.820;2023-06-24T11:31:41;13.47;;;8.07;;
42066;SDS011;27734;47.028;28.820;2023-06-24T11:34:13;15.03;;;8.50;;
42066;SDS011;27734;47.028;28.820;2023-06-24T11:36:45;15.27;;;8.40;;
42066;SDS011;27734;47.028;28.820;2023-06-24T11:39:23;14.67;;;8.20;;
42066;SDS011;27734;47.028;28.820;2023-06-24T11:41:57;15.83;;;8.20;;
42066;SDS011;27734;47.028;28.820;2023-06-24T11:44:28;11.80;;;7.83;;
42066;SDS011;27734;47.028;28.820;2023-06-24T11:47:06;17.93;;;8.30;;
42066;SDS011;27734;47.028;28.820;2023-06-24T11:52:37;13.67;;;8.40;;
42066;SDS011;27734;47.028;28.820;2023-06-24T11:55:15;13.03;;;8.27;;
42066;SDS011;27734;47.028;28.820;2023-06-24T11:57:47;15.53;;;8.10;;
42066;SDS011;27734;47.028;28.820;2023-06-24T12:00:21;14.75;;;8.40;;
42066;SDS011;27734;47.028;28.820;2023-06-24T12:02:54;18.23;;;8.43;;
42066;SDS011;27734;47.028;28.820;2023-06-24T12:05:27;16.00;;;7.97;;
42066;SDS011;27734;47.028;28.820;2023-06-24T12:07:59;14.90;;;8.40;;
42066;SDS011;27734;47.028;28.820;2023-06-24T12:10:31;15.87;;;8.60;;
42066;SDS011;27734;47.028;28.820;2023-06-24T12:13:04;14.55;;;8.73;;
42066;SDS011;27734;47.028;28.820;2023-06-24T12:15:36;13.17;;;8.10;;
42066;SDS011;27734;47.028;28.820;2023-06-24T12:18:08;11.30;;;8.00;;
42066;SDS011;27734;47.028;28.820;2023-06-24T12:20:39;12.37;;;7.80;;
42066;SDS011;27734;47.028;28.820;2023-06-24T12:23:11;15.55;;;8.20;;
42066;SDS011;27734;47.028;28.820;2023-06-24T12:25:42;12.50;;;8.20;;
42066;SDS011;27734;47.028;28.820;2023-06-24T12:28:13;13.50;;;8.13;;
42066;SDS011;27734;47.028;28.820;2023-06-24T12:30:45;15.17;;;8.13;;
42066;SDS011;27734;47.028;28.820;2023-06-24T12:33:16;14.73;;;8.17;;
42066;SDS011;27734;47.028;28.820;2023-06-24T12:35:49;14.07;;;8.20;;
42066;SDS011;27734;47.028;28.820;2023-06-24T12:38:20;14.50;;;8.43;;
42066;SDS011;27734;47.028;28.820;2023-06-24T12:40:51;12.05;;;7.80;;
42066;SDS011;27734;47.028;28.820;2023-06-24T12:43:22;14.50;;;8.23;;
42066;SDS011;27734;47.028;28.820;2023-06-24T12:45:53;10.60;;;7.50;;
42066;SDS011;27734;47.028;28.820;2023-06-24T12:48:24;13.67;;;8.10;;
42066;SDS011;27734;47.028;28.820;2023-06-24T12:50:55;13.17;;;8.00;;
42066;SDS011;27734;47.028;28.820;2023-06-24T12:53:26;15.90;;;8.53;;
42066;SDS011;27734;47.028;28.820;2023-06-24T12:55:57;15.07;;;8.43;;
42066;SDS011;27734;47.028;28.820;2023-06-24T12:58:29;14.23;;;9.13;;
42066;SDS011;27734;47.028;28.820;2023-06-24T13:01:00;14.90;;;8.60;;
42066;SDS011;27734;47.028;28.820;2023-06-24T13:03:31;14.73;;;8.30;;
42066;SDS011;27734;47.028;28.820;2023-06-24T13:06:02;14.70;;;8.73;;
42066;SDS011;27734;47.028;28.820;2023-06-24T13:08:33;13.45;;;8.55;;
42066;SDS011;27734;47.028;28.820;2023-06-24T13:11:04;15.70;;;8.30;;
42066;SDS011;27734;47.028;28.820;2023-06-24T13:13:35;14.37;;;8.30;;
42066;SDS011;27734;47.028;28.820;2023-06-24T13:16:06;14.87;;;8.60;;
42066;SDS011;27734;47.028;28.820;2023-06-24T13:18:37;14.00;;;8.30;;
42066;SDS011;27734;47.028;28.820;2023-06-24T13:21:09;14.17;;;8.37;;
42066;SDS011;27734;47.028;28.820;2023-06-24T13:23:40;13.45;;;7.65;;
42066;SDS011;27734;47.028;28.820;2023-06-24T13:26:11;14.03;;;8.23;;
42066;SDS011;27734;47.028;28.820;2023-06-24T13:28:42;14.47;;;8.07;;
42066;SDS011;27734;47.028;28.820;2023-06-24T13:31:13;13.67;;;8.13;;
42066;SDS011;27734;47.028;28.820;2023-06-24T13:33:44;12.47;;;8.00;;
42066;SDS011;27734;47.028;28.820;2023-06-24T13:39:05;14.20;;;8.87;;
42066;SDS011;27734;47.028;28.820;2023-06-24T13:41:39;15.20;;;8.43;;
42066;SDS011;27734;47.028;28.820;2023-06-24T13:44:10;14.37;;;8.60;;
42066;SDS011;27734;47.028;28.820;2023-06-24T13:46:42;13.58;;;8.60;;
42066;SDS011;27734;47.028;28.820;2023-06-24T13:49:14;14.43;;;9.10;;
42066;SDS011;27734;47.028;28.820;2023-06-24T13:51:46;14.93;;;8.88;;
42066;SDS011;27734;47.028;28.820;2023-06-24T13:54:20;15.80;;;8.93;;
42066;SDS011;27734;47.028;28.820;2023-06-24T13:56:52;16.23;;;8.87;;
42066;SDS011;27734;47.028;28.820;2023-06-24T13:59:26;17.37;;;8.80;;
42066;SDS011;27734;47.028;28.820;2023-06-24T14:01:57;14.53;;;8.87;;
42066;SDS011;27734;47.028;28.820;2023-06-24T14:04:28;15.87;;;8.90;;
42066;SDS011;27734;47.028;28.820;2023-06-24T14:06:59;14.60;;;8.67;;
42066;SDS011;27734;47.028;28.820;2023-06-24T14:09:32;15.00;;;8.83;;
42066;SDS011;27734;47.028;28.820;2023-06-24T14:12:05;15.20;;;9.33;;
42066;SDS011;27734;47.028;28.820;2023-06-24T14:14:37;15.63;;;8.53;;
42066;SDS011;27734;47.028;28.820;2023-06-24T14:17:09;13.77;;;8.37;;
42066;SDS011;27734;47.028;28.820;2023-06-24T14:19:40;15.03;;;8.70;;
42066;SDS011;27734;47.028;28.820;2023-06-24T14:22:12;13.67;;;8.20;;
42066;SDS011;27734;47.028;28.820;2023-06-24T14:24:45;14.23;;;8.73;;
42066;SDS011;27734;47.028;28.820;2023-06-24T14:27:16;14.17;;;8.37;;
42066;SDS011;27734;47.028;28.820;2023-06-24T14:29:47;14.63;;;8.50;;
42066;SDS011;27734;47.028;28.820;2023-06-24T14:32:19;13.25;;;7.95;;
42066;SDS011;27734;47.028;28.820;2023-06-24T14:34:50;13.97;;;7.90;;
42066;SDS011;27734;47.028;28.820;2023-06-24T14:37:21;14.40;;;8.37;;
42066;SDS011;27734;47.028;28.820;2023-06-24T14:39:52;17.40;;;8.00;;
42066;SDS011;27734;47.028;28.820;2023-06-24T14:42:24;12.75;;;7.50;;
42066;SDS011;27734;47.028;28.820;2023-06-24T14:44:55;14.87;;;8.40;;
42066;SDS011;27734;47.028;28.820;2023-06-24T14:47:26;14.90;;;7.70;;
42066;SDS011;27734;47.028;28.820;2023-06-24T14:49:58;18.00;;;8.60;;
42066;SDS011;27734;47.028;28.820;2023-06-24T14:52:29;16.10;;;8.65;;
42066;SDS011;27734;47.028;28.820;2023-06-24T14:55:01;15.63;;;8.13;;
42066;SDS011;27734;47.028;28.820;2023-06-24T14:57:32;15.67;;;8.37;;
42066;SDS011;27734;47.028;28.820;2023-06-24T15:00:04;14.73;;;8.17;;
42066;SDS011;27734;47.028;28.820;2023-06-24T15:02:37;13.43;;;8.17;;